sensor_id;sensor_type;location;lat;lon;timestamp;P1;durP1;ratioP1;P2;durP2;ratioP2
48853;SDS011;34673;52.808;17.856;2022-11-27T00:01:28;151.75;;;49.60;;
48853;SDS011;34673;52.808;17.856;2022-11-27T00:06:25;191.02;;;52.90;;
48853;SDS011;34673;52.808;17.856;2022-11-27T00:08:55;220.32;;;54.83;;
48853;SDS011;34673;52.808;17.856;2022-11-27T00:13:49;152.73;;;47.65;;
48853;SDS011;34673;52.808;17.856;2022-11-27T00:16:17;180.95;;;51.80;;
48853;SDS011;34673;52.808;17.856;2022-11-27T00:18:46;136.20;;;45.85;;
48853;SDS011;34673;52.808;17.856;2022-11-27T00:21:15;137.07;;;44.30;;
48853;SDS011;34673;52.808;17.856;2022-11-27T00:23:48;153.35;;;48.25;;
48853;SDS011;34673;52.808;17.856;2022-11-27T00:26:16;153.02;;;48.00;;
48853;SDS011;34673;52.808;17.856;2022-11-27T00:28:44;150.35;;;46.30;;
48853;SDS011;34673;52.808;17.856;2022-11-27T00:31:13;201.27;;;54.42;;
48853;SDS011;34673;52.808;17.856;2022-11-27T00:33:43;223.45;;;55.80;;
48853;SDS011;34673;52.808;17.856;2022-11-27T00:36:11;232.43;;;60.17;;
48853;SDS011;34673;52.808;17.856;2022-11-27T00:38:39;214.77;;;59.83;;
48853;SDS011;34673;52.808;17.856;2022-11-27T00:41:07;156.52;;;47.33;;
48853;SDS011;34673;52.808;17.856;2022-11-27T00:43:42;135.43;;;44.22;;
48853;SDS011;34673;52.808;17.856;2022-11-27T00:46:11;162.30;;;48.38;;
48853;SDS011;34673;52.808;17.856;2022-11-27T00:48:40;207.57;;;52.25;;
48853;SDS011;34673;52.808;17.856;2022-11-27T00:51:09;189.32;;;50.97;;
48853;SDS011;34673;52.808;17.856;2022-11-27T00:53:38;227.73;;;56.17;;
48853;SDS011;34673;52.808;17.856;2022-11-27T00:56:06;136.57;;;45.28;;
48853;SDS011;34673;52.808;17.856;2022-11-27T00:58:34;208.20;;;51.13;;
48853;SDS011;34673;52.808;17.856;2022-11-27T01:01:03;174.85;;;48.63;;
48853;SDS011;34673;52.808;17.856;2022-11-27T01:03:32;168.60;;;47.83;;
48853;SDS011;34673;52.808;17.856;2022-11-27T01:06:03;156.18;;;45.85;;
48853;SDS011;34673;52.808;17.856;2022-11-27T01:08:32;173.20;;;46.05;;
48853;SDS011;34673;52.808;17.856;2022-11-27T01:11:00;188.43;;;49.75;;
48853;SDS011;34673;52.808;17.856;2022-11-27T01:13:30;197.65;;;49.85;;
48853;SDS011;34673;52.808;17.856;2022-11-27T01:16:02;126.50;;;42.60;;
48853;SDS011;34673;52.808;17.856;2022-11-27T01:18:35;126.25;;;40.92;;
48853;SDS011;34673;52.808;17.856;2022-11-27T01:21:04;197.10;;;49.42;;
48853;SDS011;34673;52.808;17.856;2022-11-27T01:23:32;189.63;;;47.88;;
48853;SDS011;34673;52.808;17.856;2022-11-27T01:26:00;179.27;;;45.70;;
48853;SDS011;34673;52.808;17.856;2022-11-27T01:28:31;155.25;;;43.72;;
48853;SDS011;34673;52.808;17.856;2022-11-27T01:31:03;203.70;;;50.17;;
48853;SDS011;34673;52.808;17.856;2022-11-27T01:33:32;162.32;;;44.35;;
48853;SDS011;34673;52.808;17.856;2022-11-27T01:36:03;195.27;;;46.75;;
48853;SDS011;34673;52.808;17.856;2022-11-27T01:38:32;146.00;;;42.28;;
48853;SDS011;34673;52.808;17.856;2022-11-27T01:41:05;186.98;;;44.15;;
48853;SDS011;34673;52.808;17.856;2022-11-27T01:48:49;120.63;;;39.67;;
48853;SDS011;34673;52.808;17.856;2022-11-27T01:51:19;150.55;;;45.25;;
48853;SDS011;34673;52.808;17.856;2022-11-27T01:53:48;155.75;;;44.28;;
48853;SDS011;34673;52.808;17.856;2022-11-27T01:56:17;133.45;;;42.13;;
48853;SDS011;34673;52.808;17.856;2022-11-27T01:58:46;121.55;;;38.83;;
48853;SDS011;34673;52.808;17.856;2022-11-27T02:01:15;205.95;;;48.88;;
48853;SDS011;34673;52.808;17.856;2022-11-27T02:03:42;236.50;;;51.28;;
48853;SDS011;34673;52.808;17.856;2022-11-27T02:06:11;236.80;;;50.90;;
48853;SDS011;34673;52.808;17.856;2022-11-27T02:08:39;214.38;;;49.30;;
48853;SDS011;34673;52.808;17.856;2022-11-27T02:22:01;228.32;;;48.38;;
48853;SDS011;34673;52.808;17.856;2022-11-27T02:28:01;152.52;;;42.53;;
48853;SDS011;34673;52.808;17.856;2022-11-27T02:30:42;219.88;;;46.70;;
48853;SDS011;34673;52.808;17.856;2022-11-27T02:33:15;212.00;;;47.53;;
48853;SDS011;34673;52.808;17.856;2022-11-27T02:35:54;123.97;;;37.35;;
48853;SDS011;34673;52.808;17.856;2022-11-27T02:38:29;237.80;;;46.65;;
48853;SDS011;34673;52.808;17.856;2022-11-27T02:43:35;155.75;;;36.78;;
48853;SDS011;34673;52.808;17.856;2022-11-27T02:46:10;368.67;;;49.70;;
48853;SDS011;34673;52.808;17.856;2022-11-27T02:48:42;212.68;;;40.25;;
48853;SDS011;34673;52.808;17.856;2022-11-27T02:51:14;393.25;;;53.92;;
48853;SDS011;34673;52.808;17.856;2022-11-27T02:53:50;173.23;;;36.13;;
48853;SDS011;34673;52.808;17.856;2022-11-27T02:56:21;165.55;;;37.08;;
48853;SDS011;34673;52.808;17.856;2022-11-27T02:58:52;309.25;;;46.70;;
48853;SDS011;34673;52.808;17.856;2022-11-27T03:01:23;239.95;;;43.00;;
48853;SDS011;34673;52.808;17.856;2022-11-27T03:03:54;142.57;;;36.40;;
48853;SDS011;34673;52.808;17.856;2022-11-27T03:06:28;254.50;;;44.13;;
48853;SDS011;34673;52.808;17.856;2022-11-27T03:09:05;396.73;;;49.60;;
48853;SDS011;34673;52.808;17.856;2022-11-27T03:11:36;349.15;;;45.80;;
48853;SDS011;34673;52.808;17.856;2022-11-27T03:14:04;247.57;;;42.25;;
48853;SDS011;34673;52.808;17.856;2022-11-27T03:16:37;177.25;;;38.17;;
48853;SDS011;34673;52.808;17.856;2022-11-27T03:19:32;114.53;;;31.35;;
48853;SDS011;34673;52.808;17.856;2022-11-27T03:22:11;119.30;;;31.98;;
48853;SDS011;34673;52.808;17.856;2022-11-27T03:24:39;157.48;;;35.55;;
48853;SDS011;34673;52.808;17.856;2022-11-27T03:27:07;146.88;;;33.63;;
48853;SDS011;34673;52.808;17.856;2022-11-27T03:29:42;213.10;;;39.38;;
48853;SDS011;34673;52.808;17.856;2022-11-27T03:32:14;120.72;;;33.35;;
48853;SDS011;34673;52.808;17.856;2022-11-27T03:34:42;181.43;;;37.80;;
48853;SDS011;34673;52.808;17.856;2022-11-27T03:37:10;196.27;;;40.05;;
48853;SDS011;34673;52.808;17.856;2022-11-27T03:39:37;176.20;;;39.38;;
48853;SDS011;34673;52.808;17.856;2022-11-27T03:44:45;113.35;;;31.45;;
48853;SDS011;34673;52.808;17.856;2022-11-27T03:53:05;147.38;;;34.70;;
48853;SDS011;34673;52.808;17.856;2022-11-27T04:01:31;163.82;;;36.63;;
48853;SDS011;34673;52.808;17.856;2022-11-27T04:03:59;154.02;;;35.80;;
48853;SDS011;34673;52.808;17.856;2022-11-27T04:06:27;90.68;;;29.42;;
48853;SDS011;34673;52.808;17.856;2022-11-27T04:08:54;203.20;;;40.90;;
48853;SDS011;34673;52.808;17.856;2022-11-27T04:11:21;117.85;;;32.05;;
48853;SDS011;34673;52.808;17.856;2022-11-27T04:13:49;118.72;;;29.58;;
48853;SDS011;34673;52.808;17.856;2022-11-27T04:16:18;110.50;;;32.00;;
48853;SDS011;34673;52.808;17.856;2022-11-27T04:18:45;113.82;;;31.67;;
48853;SDS011;34673;52.808;17.856;2022-11-27T04:21:12;108.13;;;30.80;;
48853;SDS011;34673;52.808;17.856;2022-11-27T04:23:40;140.07;;;34.88;;
48853;SDS011;34673;52.808;17.856;2022-11-27T04:26:07;125.30;;;32.88;;
48853;SDS011;34673;52.808;17.856;2022-11-27T04:28:34;101.00;;;30.98;;
48853;SDS011;34673;52.808;17.856;2022-11-27T04:31:02;113.30;;;32.40;;
48853;SDS011;34673;52.808;17.856;2022-11-27T04:33:30;121.07;;;32.88;;
48853;SDS011;34673;52.808;17.856;2022-11-27T04:35:57;153.13;;;36.42;;
48853;SDS011;34673;52.808;17.856;2022-11-27T04:38:25;142.07;;;33.95;;
48853;SDS011;34673;52.808;17.856;2022-11-27T04:40:52;172.90;;;36.78;;
48853;SDS011;34673;52.808;17.856;2022-11-27T04:43:19;253.38;;;43.80;;
48853;SDS011;34673;52.808;17.856;2022-11-27T04:45:46;153.25;;;34.67;;
48853;SDS011;34673;52.808;17.856;2022-11-27T04:48:13;118.60;;;33.05;;
48853;SDS011;34673;52.808;17.856;2022-11-27T04:50:41;137.27;;;35.78;;
48853;SDS011;34673;52.808;17.856;2022-11-27T04:53:08;180.77;;;37.08;;
48853;SDS011;34673;52.808;17.856;2022-11-27T04:55:35;105.88;;;29.88;;
48853;SDS011;34673;52.808;17.856;2022-11-27T04:58:03;104.85;;;30.73;;
48853;SDS011;34673;52.808;17.856;2022-11-27T05:00:30;118.43;;;30.48;;
48853;SDS011;34673;52.808;17.856;2022-11-27T05:02:57;97.03;;;28.40;;
48853;SDS011;34673;52.808;17.856;2022-11-27T05:05:25;253.10;;;39.28;;
48853;SDS011;34673;52.808;17.856;2022-11-27T05:07:52;250.48;;;37.05;;
48853;SDS011;34673;52.808;17.856;2022-11-27T05:10:19;276.10;;;38.80;;
48853;SDS011;34673;52.808;17.856;2022-11-27T05:12:47;356.73;;;44.67;;
48853;SDS011;34673;52.808;17.856;2022-11-27T05:15:14;332.08;;;40.60;;
48853;SDS011;34673;52.808;17.856;2022-11-27T05:17:41;276.17;;;36.20;;
48853;SDS011;34673;52.808;17.856;2022-11-27T05:20:09;310.42;;;39.20;;
48853;SDS011;34673;52.808;17.856;2022-11-27T05:22:37;226.93;;;36.38;;
48853;SDS011;34673;52.808;17.856;2022-11-27T05:25:04;226.63;;;31.98;;
48853;SDS011;34673;52.808;17.856;2022-11-27T05:27:32;279.55;;;33.00;;
48853;SDS011;34673;52.808;17.856;2022-11-27T05:29:59;202.27;;;31.55;;
48853;SDS011;34673;52.808;17.856;2022-11-27T05:32:26;147.70;;;25.95;;
48853;SDS011;34673;52.808;17.856;2022-11-27T05:34:53;223.65;;;31.70;;
48853;SDS011;34673;52.808;17.856;2022-11-27T05:37:21;357.20;;;37.83;;
48853;SDS011;34673;52.808;17.856;2022-11-27T05:39:48;158.50;;;27.83;;
48853;SDS011;34673;52.808;17.856;2022-11-27T05:42:15;258.80;;;37.40;;
48853;SDS011;34673;52.808;17.856;2022-11-27T05:44:43;191.63;;;29.27;;
48853;SDS011;34673;52.808;17.856;2022-11-27T05:47:10;328.77;;;35.28;;
48853;SDS011;34673;52.808;17.856;2022-11-27T05:49:37;305.75;;;37.60;;
48853;SDS011;34673;52.808;17.856;2022-11-27T05:52:05;148.57;;;30.27;;
48853;SDS011;34673;52.808;17.856;2022-11-27T05:54:32;111.40;;;27.15;;
48853;SDS011;34673;52.808;17.856;2022-11-27T05:56:59;109.40;;;26.00;;
48853;SDS011;34673;52.808;17.856;2022-11-27T05:59:26;199.63;;;31.83;;
48853;SDS011;34673;52.808;17.856;2022-11-27T06:01:54;78.75;;;22.95;;
48853;SDS011;34673;52.808;17.856;2022-11-27T06:04:21;132.38;;;25.02;;
48853;SDS011;34673;52.808;17.856;2022-11-27T06:06:49;210.27;;;29.77;;
48853;SDS011;34673;52.808;17.856;2022-11-27T06:09:16;163.05;;;28.00;;
48853;SDS011;34673;52.808;17.856;2022-11-27T06:11:43;173.32;;;27.58;;
48853;SDS011;34673;52.808;17.856;2022-11-27T06:14:11;396.40;;;41.60;;
48853;SDS011;34673;52.808;17.856;2022-11-27T06:16:38;212.43;;;32.08;;
48853;SDS011;34673;52.808;17.856;2022-11-27T06:19:06;248.20;;;31.83;;
48853;SDS011;34673;52.808;17.856;2022-11-27T06:21:33;261.48;;;30.65;;
48853;SDS011;34673;52.808;17.856;2022-11-27T06:24:00;304.05;;;36.08;;
48853;SDS011;34673;52.808;17.856;2022-11-27T06:26:30;172.32;;;30.27;;
48853;SDS011;34673;52.808;17.856;2022-11-27T06:28:59;249.40;;;35.50;;
48853;SDS011;34673;52.808;17.856;2022-11-27T06:31:29;207.40;;;27.75;;
48853;SDS011;34673;52.808;17.856;2022-11-27T06:36:28;224.27;;;27.67;;
48853;SDS011;34673;52.808;17.856;2022-11-27T06:38:59;159.40;;;28.02;;
48853;SDS011;34673;52.808;17.856;2022-11-27T06:41:27;164.80;;;31.05;;
48853;SDS011;34673;52.808;17.856;2022-11-27T06:43:56;190.40;;;28.38;;
48853;SDS011;34673;52.808;17.856;2022-11-27T06:46:24;195.35;;;29.98;;
48853;SDS011;34673;52.808;17.856;2022-11-27T06:48:52;72.05;;;25.10;;
48853;SDS011;34673;52.808;17.856;2022-11-27T06:51:24;173.73;;;33.83;;
48853;SDS011;34673;52.808;17.856;2022-11-27T06:53:52;132.85;;;24.42;;
48853;SDS011;34673;52.808;17.856;2022-11-27T06:56:21;157.52;;;26.30;;
48853;SDS011;34673;52.808;17.856;2022-11-27T06:58:51;606.25;;;56.95;;
48853;SDS011;34673;52.808;17.856;2022-11-27T07:01:20;413.95;;;49.10;;
48853;SDS011;34673;52.808;17.856;2022-11-27T07:03:49;86.63;;;27.35;;
48853;SDS011;34673;52.808;17.856;2022-11-27T07:06:17;286.48;;;34.20;;
48853;SDS011;34673;52.808;17.856;2022-11-27T07:08:47;470.33;;;40.50;;
48853;SDS011;34673;52.808;17.856;2022-11-27T07:11:16;143.27;;;27.10;;
48853;SDS011;34673;52.808;17.856;2022-11-27T07:13:45;183.48;;;31.27;;
48853;SDS011;34673;52.808;17.856;2022-11-27T07:16:13;202.65;;;33.67;;
48853;SDS011;34673;52.808;17.856;2022-11-27T07:18:43;183.48;;;31.42;;
48853;SDS011;34673;52.808;17.856;2022-11-27T07:21:21;148.13;;;27.00;;
48853;SDS011;34673;52.808;17.856;2022-11-27T07:23:49;292.67;;;31.25;;
48853;SDS011;34673;52.808;17.856;2022-11-27T07:26:18;283.60;;;29.80;;
48853;SDS011;34673;52.808;17.856;2022-11-27T07:28:47;170.07;;;27.02;;
48853;SDS011;34673;52.808;17.856;2022-11-27T07:31:15;316.15;;;32.50;;
48853;SDS011;34673;52.808;17.856;2022-11-27T07:33:48;179.20;;;27.33;;
48853;SDS011;34673;52.808;17.856;2022-11-27T07:36:19;99.47;;;22.42;;
48853;SDS011;34673;52.808;17.856;2022-11-27T07:38:49;428.17;;;38.38;;
48853;SDS011;34673;52.808;17.856;2022-11-27T07:41:16;324.67;;;34.45;;
48853;SDS011;34673;52.808;17.856;2022-11-27T07:43:44;170.35;;;23.33;;
48853;SDS011;34673;52.808;17.856;2022-11-27T07:46:16;237.20;;;29.70;;
48853;SDS011;34673;52.808;17.856;2022-11-27T07:48:46;303.92;;;36.35;;
48853;SDS011;34673;52.808;17.856;2022-11-27T07:51:14;255.73;;;32.90;;
48853;SDS011;34673;52.808;17.856;2022-11-27T07:53:43;98.63;;;21.60;;
48853;SDS011;34673;52.808;17.856;2022-11-27T07:56:11;271.10;;;29.13;;
48853;SDS011;34673;52.808;17.856;2022-11-27T07:58:40;419.60;;;40.17;;
48853;SDS011;34673;52.808;17.856;2022-11-27T08:01:08;159.55;;;28.50;;
48853;SDS011;34673;52.808;17.856;2022-11-27T08:03:37;288.98;;;31.48;;
48853;SDS011;34673;52.808;17.856;2022-11-27T08:06:11;248.55;;;28.23;;
48853;SDS011;34673;52.808;17.856;2022-11-27T08:08:40;285.20;;;33.72;;
48853;SDS011;34673;52.808;17.856;2022-11-27T08:11:18;105.63;;;22.17;;
48853;SDS011;34673;52.808;17.856;2022-11-27T08:13:45;131.85;;;24.75;;
48853;SDS011;34673;52.808;17.856;2022-11-27T08:16:13;221.05;;;26.90;;
48853;SDS011;34673;52.808;17.856;2022-11-27T08:18:40;214.02;;;27.98;;
48853;SDS011;34673;52.808;17.856;2022-11-27T08:21:08;350.50;;;34.58;;
48853;SDS011;34673;52.808;17.856;2022-11-27T08:23:35;187.90;;;27.42;;
48853;SDS011;34673;52.808;17.856;2022-11-27T08:26:03;178.25;;;26.90;;
48853;SDS011;34673;52.808;17.856;2022-11-27T08:28:32;167.00;;;27.67;;
48853;SDS011;34673;52.808;17.856;2022-11-27T08:31:01;247.45;;;32.65;;
48853;SDS011;34673;52.808;17.856;2022-11-27T08:33:30;249.73;;;34.50;;
48853;SDS011;34673;52.808;17.856;2022-11-27T08:35:58;138.10;;;26.58;;
48853;SDS011;34673;52.808;17.856;2022-11-27T08:38:26;156.00;;;30.25;;
48853;SDS011;34673;52.808;17.856;2022-11-27T08:40:54;85.80;;;22.55;;
48853;SDS011;34673;52.808;17.856;2022-11-27T08:43:23;118.90;;;28.13;;
48853;SDS011;34673;52.808;17.856;2022-11-27T08:45:51;291.25;;;35.53;;
48853;SDS011;34673;52.808;17.856;2022-11-27T08:48:19;185.60;;;28.20;;
48853;SDS011;34673;52.808;17.856;2022-11-27T08:50:48;112.40;;;25.27;;
48853;SDS011;34673;52.808;17.856;2022-11-27T08:53:16;149.38;;;28.13;;
48853;SDS011;34673;52.808;17.856;2022-11-27T08:55:44;147.13;;;29.20;;
48853;SDS011;34673;52.808;17.856;2022-11-27T08:58:11;157.20;;;31.60;;
48853;SDS011;34673;52.808;17.856;2022-11-27T09:00:39;187.13;;;32.45;;
48853;SDS011;34673;52.808;17.856;2022-11-27T09:03:09;170.65;;;32.08;;
48853;SDS011;34673;52.808;17.856;2022-11-27T09:05:40;65.05;;;23.75;;
48853;SDS011;34673;52.808;17.856;2022-11-27T09:08:09;70.05;;;25.48;;
48853;SDS011;34673;52.808;17.856;2022-11-27T09:10:39;267.67;;;40.45;;
48853;SDS011;34673;52.808;17.856;2022-11-27T09:13:06;116.93;;;29.98;;
48853;SDS011;34673;52.808;17.856;2022-11-27T09:15:33;108.70;;;29.95;;
48853;SDS011;34673;52.808;17.856;2022-11-27T09:18:01;158.10;;;32.00;;
48853;SDS011;34673;52.808;17.856;2022-11-27T09:20:28;321.70;;;43.40;;
48853;SDS011;34673;52.808;17.856;2022-11-27T09:22:57;352.95;;;43.40;;
48853;SDS011;34673;52.808;17.856;2022-11-27T09:25:26;147.23;;;31.55;;
48853;SDS011;34673;52.808;17.856;2022-11-27T09:27:53;240.43;;;42.00;;
48853;SDS011;34673;52.808;17.856;2022-11-27T09:30:20;222.85;;;37.30;;
48853;SDS011;34673;52.808;17.856;2022-11-27T09:32:48;395.23;;;49.75;;
48853;SDS011;34673;52.808;17.856;2022-11-27T09:35:15;239.70;;;38.55;;
48853;SDS011;34673;52.808;17.856;2022-11-27T09:37:43;403.38;;;51.45;;
48853;SDS011;34673;52.808;17.856;2022-11-27T09:40:14;225.88;;;40.63;;
48853;SDS011;34673;52.808;17.856;2022-11-27T09:42:52;327.65;;;46.03;;
48853;SDS011;34673;52.808;17.856;2022-11-27T09:45:23;217.70;;;41.20;;
48853;SDS011;34673;52.808;17.856;2022-11-27T09:47:54;165.23;;;35.45;;
48853;SDS011;34673;52.808;17.856;2022-11-27T09:50:31;136.02;;;34.47;;
48853;SDS011;34673;52.808;17.856;2022-11-27T09:53:04;268.20;;;44.63;;
48853;SDS011;34673;52.808;17.856;2022-11-27T09:55:45;144.52;;;36.50;;
48853;SDS011;34673;52.808;17.856;2022-11-27T09:58:19;202.25;;;39.92;;
48853;SDS011;34673;52.808;17.856;2022-11-27T10:00:52;171.82;;;36.55;;
48853;SDS011;34673;52.808;17.856;2022-11-27T10:03:28;163.40;;;38.78;;
48853;SDS011;34673;52.808;17.856;2022-11-27T10:17:43;117.97;;;33.85;;
48853;SDS011;34673;52.808;17.856;2022-11-27T10:26:18;228.68;;;43.15;;
48853;SDS011;34673;52.808;17.856;2022-11-27T10:29:08;106.07;;;32.78;;
48853;SDS011;34673;52.808;17.856;2022-11-27T10:31:47;262.52;;;44.90;;
48853;SDS011;34673;52.808;17.856;2022-11-27T10:34:33;206.35;;;42.75;;
48853;SDS011;34673;52.808;17.856;2022-11-27T10:37:17;123.28;;;35.05;;
48853;SDS011;34673;52.808;17.856;2022-11-27T10:42:50;157.10;;;38.50;;
48853;SDS011;34673;52.808;17.856;2022-11-27T10:48:11;224.88;;;43.75;;
48853;SDS011;34673;52.808;17.856;2022-11-27T10:50:40;210.27;;;43.38;;
48853;SDS011;34673;52.808;17.856;2022-11-27T10:53:09;263.67;;;47.40;;
48853;SDS011;34673;52.808;17.856;2022-11-27T10:55:44;181.60;;;41.55;;
48853;SDS011;34673;52.808;17.856;2022-11-27T11:01:04;118.72;;;35.47;;
48853;SDS011;34673;52.808;17.856;2022-11-27T11:03:35;189.38;;;43.30;;
48853;SDS011;34673;52.808;17.856;2022-11-27T11:06:04;142.63;;;40.90;;
48853;SDS011;34673;52.808;17.856;2022-11-27T11:09:03;214.00;;;44.28;;
48853;SDS011;34673;52.808;17.856;2022-11-27T11:11:38;163.18;;;40.60;;
48853;SDS011;34673;52.808;17.856;2022-11-27T11:16:45;112.27;;;36.10;;
48853;SDS011;34673;52.808;17.856;2022-11-27T11:19:23;100.57;;;33.53;;
48853;SDS011;34673;52.808;17.856;2022-11-27T11:21:58;104.95;;;34.35;;
48853;SDS011;34673;52.808;17.856;2022-11-27T11:24:34;74.13;;;29.38;;
48853;SDS011;34673;52.808;17.856;2022-11-27T11:27:16;79.90;;;29.13;;
48853;SDS011;34673;52.808;17.856;2022-11-27T11:29:56;120.53;;;35.15;;
48853;SDS011;34673;52.808;17.856;2022-11-27T11:32:28;78.13;;;27.23;;
48853;SDS011;34673;52.808;17.856;2022-11-27T11:37:49;117.97;;;31.55;;
48853;SDS011;34673;52.808;17.856;2022-11-27T11:42:55;127.95;;;36.13;;
48853;SDS011;34673;52.808;17.856;2022-11-27T11:45:32;89.22;;;29.20;;
48853;SDS011;34673;52.808;17.856;2022-11-27T11:48:50;97.05;;;32.72;;
48853;SDS011;34673;52.808;17.856;2022-11-27T11:50:53;114.82;;;33.67;;
48853;SDS011;34673;52.808;17.856;2022-11-27T11:56:10;98.45;;;32.70;;
48853;SDS011;34673;52.808;17.856;2022-11-27T12:09:42;142.20;;;32.27;;
48853;SDS011;34673;52.808;17.856;2022-11-27T12:20:23;130.05;;;34.55;;
48853;SDS011;34673;52.808;17.856;2022-11-27T12:31:36;128.80;;;33.58;;
48853;SDS011;34673;52.808;17.856;2022-11-27T12:34:12;106.88;;;29.45;;
48853;SDS011;34673;52.808;17.856;2022-11-27T12:43:05;101.82;;;29.80;;
48853;SDS011;34673;52.808;17.856;2022-11-27T12:45:46;99.43;;;28.77;;
48853;SDS011;34673;52.808;17.856;2022-11-27T12:51:31;101.82;;;28.58;;
48853;SDS011;34673;52.808;17.856;2022-11-27T12:54:08;114.70;;;30.35;;
48853;SDS011;34673;52.808;17.856;2022-11-27T12:56:45;130.95;;;32.60;;
48853;SDS011;34673;52.808;17.856;2022-11-27T12:59:20;93.90;;;26.52;;
48853;SDS011;34673;52.808;17.856;2022-11-27T13:01:53;122.43;;;31.38;;
48853;SDS011;34673;52.808;17.856;2022-11-27T13:04:38;87.15;;;26.95;;
48853;SDS011;34673;52.808;17.856;2022-11-27T13:12:43;124.13;;;33.72;;
48853;SDS011;34673;52.808;17.856;2022-11-27T13:21:12;100.20;;;28.73;;
48853;SDS011;34673;52.808;17.856;2022-11-27T13:23:44;118.72;;;30.63;;
48853;SDS011;34673;52.808;17.856;2022-11-27T13:26:13;109.95;;;29.60;;
48853;SDS011;34673;52.808;17.856;2022-11-27T13:28:59;98.78;;;29.60;;
48853;SDS011;34673;52.808;17.856;2022-11-27T13:31:33;90.30;;;28.85;;
48853;SDS011;34673;52.808;17.856;2022-11-27T13:34:06;85.30;;;28.48;;
48853;SDS011;34673;52.808;17.856;2022-11-27T13:36:36;91.05;;;28.20;;
48853;SDS011;34673;52.808;17.856;2022-11-27T13:39:05;93.35;;;28.70;;
48853;SDS011;34673;52.808;17.856;2022-11-27T13:41:47;72.47;;;27.02;;
48853;SDS011;34673;52.808;17.856;2022-11-27T13:44:25;87.90;;;29.10;;
48853;SDS011;34673;52.808;17.856;2022-11-27T13:46:57;83.47;;;28.38;;
48853;SDS011;34673;52.808;17.856;2022-11-27T13:49:31;71.53;;;26.25;;
48853;SDS011;34673;52.808;17.856;2022-11-27T13:52:04;75.53;;;26.50;;
48853;SDS011;34673;52.808;17.856;2022-11-27T13:54:35;78.88;;;27.48;;
48853;SDS011;34673;52.808;17.856;2022-11-27T13:57:09;69.38;;;24.88;;
48853;SDS011;34673;52.808;17.856;2022-11-27T13:59:38;76.03;;;26.05;;
48853;SDS011;34673;52.808;17.856;2022-11-27T14:02:06;54.08;;;22.08;;
48853;SDS011;34673;52.808;17.856;2022-11-27T14:04:34;61.03;;;22.70;;
48853;SDS011;34673;52.808;17.856;2022-11-27T14:07:08;60.88;;;23.17;;
48853;SDS011;34673;52.808;17.856;2022-11-27T14:09:40;55.63;;;20.65;;
48853;SDS011;34673;52.808;17.856;2022-11-27T14:12:19;63.33;;;23.00;;
48853;SDS011;34673;52.808;17.856;2022-11-27T14:17:42;59.80;;;22.05;;
48853;SDS011;34673;52.808;17.856;2022-11-27T14:22:47;62.13;;;23.45;;
48853;SDS011;34673;52.808;17.856;2022-11-27T14:25:36;63.83;;;23.65;;
48853;SDS011;34673;52.808;17.856;2022-11-27T14:28:19;64.93;;;22.90;;
48853;SDS011;34673;52.808;17.856;2022-11-27T14:30:53;61.40;;;23.08;;
48853;SDS011;34673;52.808;17.856;2022-11-27T14:33:26;69.93;;;24.83;;
48853;SDS011;34673;52.808;17.856;2022-11-27T14:35:57;59.03;;;22.50;;
48853;SDS011;34673;52.808;17.856;2022-11-27T14:41:14;70.47;;;24.63;;
48853;SDS011;34673;52.808;17.856;2022-11-27T14:43:42;75.20;;;25.85;;
48853;SDS011;34673;52.808;17.856;2022-11-27T14:46:14;66.95;;;24.27;;
48853;SDS011;34673;52.808;17.856;2022-11-27T14:51:14;80.80;;;26.50;;
48853;SDS011;34673;52.808;17.856;2022-11-27T14:53:47;67.00;;;23.98;;
48853;SDS011;34673;52.808;17.856;2022-11-27T14:56:16;60.70;;;22.73;;
48853;SDS011;34673;52.808;17.856;2022-11-27T14:58:51;75.20;;;25.80;;
48853;SDS011;34673;52.808;17.856;2022-11-27T15:03:54;73.43;;;23.75;;
48853;SDS011;34673;52.808;17.856;2022-11-27T15:06:22;85.43;;;25.50;;
48853;SDS011;34673;52.808;17.856;2022-11-27T15:08:52;69.65;;;23.27;;
48853;SDS011;34673;52.808;17.856;2022-11-27T15:11:40;62.47;;;21.17;;
48853;SDS011;34673;52.808;17.856;2022-11-27T15:14:21;64.05;;;22.20;;
48853;SDS011;34673;52.808;17.856;2022-11-27T15:16:53;60.35;;;21.92;;
48853;SDS011;34673;52.808;17.856;2022-11-27T15:19:29;72.85;;;22.63;;
48853;SDS011;34673;52.808;17.856;2022-11-27T15:21:59;67.32;;;23.92;;
48853;SDS011;34673;52.808;17.856;2022-11-27T15:27:05;112.13;;;29.98;;
48853;SDS011;34673;52.808;17.856;2022-11-27T15:34:52;85.22;;;27.35;;
48853;SDS011;34673;52.808;17.856;2022-11-27T15:37:26;117.60;;;34.05;;
48853;SDS011;34673;52.808;17.856;2022-11-27T15:39:56;190.07;;;48.70;;
48853;SDS011;34673;52.808;17.856;2022-11-27T15:42:24;217.45;;;66.80;;
48853;SDS011;34673;52.808;17.856;2022-11-27T15:44:54;193.82;;;51.47;;
48853;SDS011;34673;52.808;17.856;2022-11-27T15:47:26;175.90;;;46.90;;
48853;SDS011;34673;52.808;17.856;2022-11-27T15:50:03;171.90;;;49.65;;
48853;SDS011;34673;52.808;17.856;2022-11-27T15:52:31;184.05;;;51.92;;
48853;SDS011;34673;52.808;17.856;2022-11-27T15:54:59;125.13;;;36.05;;
48853;SDS011;34673;52.808;17.856;2022-11-27T15:57:26;89.45;;;27.90;;
48853;SDS011;34673;52.808;17.856;2022-11-27T15:59:53;117.35;;;33.60;;
48853;SDS011;34673;52.808;17.856;2022-11-27T16:02:21;113.18;;;31.00;;
48853;SDS011;34673;52.808;17.856;2022-11-27T16:04:49;154.95;;;43.20;;
48853;SDS011;34673;52.808;17.856;2022-11-27T16:07:16;126.38;;;35.22;;
48853;SDS011;34673;52.808;17.856;2022-11-27T16:09:44;86.10;;;27.40;;
48853;SDS011;34673;52.808;17.856;2022-11-27T16:12:13;93.97;;;25.85;;
48853;SDS011;34673;52.808;17.856;2022-11-27T16:14:41;93.78;;;26.63;;
48853;SDS011;34673;52.808;17.856;2022-11-27T16:17:08;173.73;;;39.33;;
48853;SDS011;34673;52.808;17.856;2022-11-27T16:19:36;125.88;;;35.70;;
48853;SDS011;34673;52.808;17.856;2022-11-27T16:22:03;142.05;;;35.42;;
48853;SDS011;34673;52.808;17.856;2022-11-27T16:24:30;80.63;;;25.38;;
48853;SDS011;34673;52.808;17.856;2022-11-27T16:26:58;108.32;;;27.55;;
48853;SDS011;34673;52.808;17.856;2022-11-27T16:29:26;71.65;;;23.90;;
48853;SDS011;34673;52.808;17.856;2022-11-27T16:31:55;74.82;;;22.88;;
48853;SDS011;34673;52.808;17.856;2022-11-27T16:34:23;65.88;;;23.08;;
48853;SDS011;34673;52.808;17.856;2022-11-27T16:36:52;83.13;;;23.00;;
48853;SDS011;34673;52.808;17.856;2022-11-27T16:39:20;73.68;;;22.60;;
48853;SDS011;34673;52.808;17.856;2022-11-27T16:41:48;79.07;;;25.77;;
48853;SDS011;34673;52.808;17.856;2022-11-27T16:44:17;72.78;;;25.70;;
48853;SDS011;34673;52.808;17.856;2022-11-27T16:46:44;99.15;;;27.90;;
48853;SDS011;34673;52.808;17.856;2022-11-27T16:49:12;77.72;;;24.73;;